Time;durP1;ratioP1;P1;durP2;ratioP2;P2;SDS_P1;SDS_P2;PMS_P1;PMS_P2;Temp;Humidity;BMP_temperature;BMP_pressure;BME280_temperature;BME280_humidity;BME280_pressure;Samples;Min_cycle;Max_cycle;Signal;HPM_P1;HPM_P2
2021/07/14 00:01:41;;;;;;;16.15;4.50;;;;;;;19.17;59.70;100848.22;5037753;28;20052;-61
2021/07/14 00:04:08;;;;;;;16.42;4.43;;;;;;;19.06;60.02;100831.88;5038073;28;20041;-61
2021/07/14 00:06:37;;;;;;;15.13;5.57;;;;;;;19.11;59.87;100835.41;5072537;28;20121;-62
2021/07/14 00:09:07;;;;;;;12.88;5.18;;;;;;;19.05;59.88;100831.06;5035238;28;20041;-65
2021/07/14 00:11:39;;;;;;;12.35;5.53;;;;;;;19.04;60.16;100829.41;5036937;28;20052;-66
2021/07/14 00:22:25;;;;;;;12.88;4.97;;;;;;;19.03;59.93;100838.22;5033403;28;20108;-65
2021/07/14 00:24:52;;;;;;;12.13;4.47;;;;;;;18.97;59.93;100837.53;5032054;28;20687;-64
2021/07/14 00:27:19;;;;;;;12.35;6.50;;;;;;;18.99;59.98;100845.69;5037708;28;20457;-64
2021/07/14 00:29:56;;;;;;;15.02;5.38;;;;;;;18.92;60.32;100832.03;5052346;28;20081;-62
2021/07/14 00:32:25;;;;;;;10.70;5.65;;;;;;;19.01;60.52;100846.19;5039920;28;20121;-64
2021/07/14 00:34:53;;;;;;;9.85;4.35;;;;;;;19.00;60.23;100841.69;5046578;28;20053;-66
2021/07/14 00:37:21;;;;;;;11.10;4.53;;;;;;;18.96;60.62;100835.88;5030892;28;20080;-67
2021/07/14 00:39:55;;;;;;;10.63;4.95;;;;;;;18.89;60.52;100829.88;5036966;28;20045;-67
2021/07/14 00:42:24;;;;;;;9.90;5.25;;;;;;;18.92;60.49;100837.69;5047186;28;20080;-68
2021/07/14 00:44:53;;;;;;;14.75;6.78;;;;;;;18.95;60.50;100834.22;5038247;28;20416;-68
2021/07/14 00:47:30;;;;;;;16.02;5.72;;;;;;;18.95;60.36;100825.72;5035263;28;20080;-63
2021/07/14 00:49:58;;;;;;;12.25;5.57;;;;;;;18.95;60.82;100817.22;5035812;28;20132;-65
2021/07/14 00:52:25;;;;;;;10.55;5.25;;;;;;;18.91;60.78;100824.72;5047983;28;20075;-65
2021/07/14 00:54:52;;;;;;;13.20;5.47;;;;;;;18.85;60.84;100812.72;5049719;28;20089;-64
2021/07/14 00:57:21;;;;;;;12.52;5.60;;;;;;;18.84;60.99;100818.72;5034648;28;20081;-64
2021/07/14 00:59:48;;;;;;;12.40;4.82;;;;;;;18.66;61.20;100790.34;5040571;28;20056;-65
2021/07/14 01:02:16;;;;;;;16.33;5.57;;;;;;;18.87;61.17;100806.72;5052944;28;20119;-63
2021/07/14 01:04:55;;;;;;;10.82;5.80;;;;;;;18.86;60.91;100813.53;5036910;28;20046;-67
2021/07/14 01:07:29;;;;;;;11.90;5.55;;;;;;;18.82;60.96;100802.06;5040891;28;20537;-62
2021/07/14 01:10:04;;;;;;;17.98;5.20;;;;;;;18.90;60.74;100800.41;5045416;28;20600;-63
2021/07/14 01:12:56;;;;;;;10.15;4.43;;;;;;;18.90;60.65;100806.06;5034471;28;20140;-63
2021/07/14 01:15:25;;;;;;;10.52;5.15;;;;;;;18.86;60.71;100793.72;5039259;28;20135;-62
2021/07/14 01:18:09;;;;;;;14.82;5.35;;;;;;;18.67;61.10;100762.91;5043065;28;20180;-62
2021/07/14 01:20:56;;;;;;;12.73;5.00;;;;;;;18.73;60.75;100781.38;5043470;28;20136;-63
2021/07/14 01:23:29;;;;;;;9.50;5.20;;;;;;;18.72;61.17;100781.72;5042766;28;20069;-65
2021/07/14 01:26:12;;;;;;;17.67;6.25;;;;;;;18.72;61.03;100781.72;5036473;28;20045;-65
2021/07/14 01:28:43;;;;;;;15.80;4.72;;;;;;;18.63;61.26;100762.72;5042823;28;20125;-66
2021/07/14 01:31:17;;;;;;;13.02;5.47;;;;;;;18.68;61.65;100775.88;5038288;28;20119;-67
2021/07/14 01:33:44;;;;;;;10.63;5.43;;;;;;;18.65;61.58;100770.88;5039671;28;20144;-67
2021/07/14 01:36:15;;;;;;;12.40;5.10;;;;;;;18.59;61.55;100758.03;5050641;28;20072;-66
2021/07/14 01:38:45;;;;;;;15.85;5.20;;;;;;;18.63;61.89;100765.56;5038596;28;20135;-64
2021/07/14 01:41:18;;;;;;;11.57;5.15;;;;;;;18.69;61.56;100767.03;5033059;28;20085;-64
2021/07/14 01:43:50;;;;;;;16.10;5.50;;;;;;;18.71;61.61;100769.56;5040803;28;20124;-64
2021/07/14 01:46:19;;;;;;;11.07;4.80;;;;;;;18.68;61.66;100776.69;5036992;28;20045;-64
2021/07/14 01:48:49;;;;;;;12.00;4.78;;;;;;;18.66;61.79;100772.53;5048896;28;20500;-64
2021/07/14 01:51:18;;;;;;;14.55;5.07;;;;;;;18.57;61.53;100758.38;5034125;28;20080;-64
2021/07/14 01:53:45;;;;;;;12.07;5.10;;;;;;;18.58;61.91;100765.69;5041495;28;20537;-64
2021/07/14 01:56:13;;;;;;;13.15;5.20;;;;;;;18.63;61.75;100774.03;5046568;28;20156;-64
2021/07/14 01:58:43;;;;;;;10.45;5.18;;;;;;;18.61;61.77;100772.69;5032210;28;20042;-64
2021/07/14 02:01:13;;;;;;;14.05;5.70;;;;;;;18.69;62.02;100767.03;5036984;28;20544;-63
2021/07/14 02:03:54;;;;;;;18.30;6.25;;;;;;;18.70;61.85;100745.28;5036319;28;20076;-64
2021/07/14 02:06:22;;;;;;;15.07;5.57;;;;;;;18.71;61.52;100746.94;5031800;28;20088;-65
2021/07/14 02:08:49;;;;;;;14.13;5.53;;;;;;;18.77;61.71;100756.97;5043558;28;20520;-63
2021/07/14 02:11:23;;;;;;;17.08;6.78;;;;;;;18.91;61.33;100768.13;5046046;28;20080;-65
2021/07/14 02:13:52;;;;;;;25.27;6.20;;;;;;;18.92;61.70;100767.78;5061041;28;20080;-65
2021/07/14 02:16:22;;;;;;;15.65;5.78;;;;;;;18.88;61.26;100763.13;5038523;28;20045;-63
2021/07/14 02:18:55;;;;;;;15.88;5.43;;;;;;;18.80;61.20;100761.09;5042159;28;20049;-64
2021/07/14 02:21:23;;;;;;;14.20;5.18;;;;;;;18.67;61.46;100746.75;5033388;28;20124;-67
2021/07/14 02:23:50;;;;;;;12.70;5.80;;;;;;;18.70;61.73;100757.41;5037766;28;20132;-66
2021/07/14 02:26:16;;;;;;;12.73;5.40;;;;;;;18.37;61.80;100713.75;5046840;28;20124;-67
2021/07/14 02:28:43;;;;;;;13.80;5.45;;;;;;;18.71;61.93;100766.72;5045780;28;20141;-66
2021/07/14 02:31:10;;;;;;;13.60;6.05;;;;;;;18.69;61.62;100755.72;5031083;28;20128;-66
2021/07/14 02:33:38;;;;;;;13.63;5.93;;;;;;;18.62;61.78;100749.72;5040452;28;20041;-66
2021/07/14 02:36:09;;;;;;;13.32;5.38;;;;;;;18.65;61.95;100753.91;5038112;28;20077;-63
2021/07/14 02:38:40;;;;;;;13.07;5.72;;;;;;;18.63;61.74;100753.38;5034110;28;20072;-63
2021/07/14 02:41:14;;;;;;;12.25;5.00;;;;;;;18.64;62.08;100747.41;5033980;28;20501;-63
2021/07/14 02:43:46;;;;;;;11.25;6.07;;;;;;;18.65;62.10;100745.41;5031587;28;20117;-63
2021/07/14 02:46:18;;;;;;;16.83;5.15;;;;;;;18.69;61.87;100750.06;5035467;28;20084;-63
2021/07/14 02:48:47;;;;;;;14.45;5.28;;;;;;;18.73;62.21;100743.78;5031494;28;20092;-63
2021/07/14 02:51:16;;;;;;;10.15;4.47;;;;;;;18.71;62.24;100735.59;5033743;28;20088;-63
2021/07/14 02:53:47;;;;;;;10.82;5.28;;;;;;;18.80;61.91;100744.13;5051493;28;20080;-63
2021/07/14 02:56:19;;;;;;;12.52;5.07;;;;;;;18.81;61.63;100738.16;5039558;28;20743;-66
2021/07/14 02:58:54;;;;;;;10.55;5.28;;;;;;;18.84;61.67;100742.31;5039592;28;20446;-64
2021/07/14 03:01:22;;;;;;;11.43;5.13;;;;;;;18.89;61.57;100747.81;5032232;28;20132;-62
2021/07/14 03:03:50;;;;;;;16.25;5.38;;;;;;;18.89;61.86;100745.78;5033276;28;20047;-61
2021/07/14 03:06:18;;;;;;;11.55;4.38;;;;;;;18.89;61.57;100742.13;5039055;28;20069;-69
2021/07/14 03:08:48;;;;;;;8.70;4.30;;;;;;;18.90;61.43;100743.78;5048088;28;20088;-64
2021/07/14 03:11:16;;;;;;;6.68;4.25;;;;;;;18.88;61.55;100746.97;5035551;28;20047;-63
2021/07/14 03:13:45;;;;;;;11.82;4.53;;;;;;;18.86;61.88;100748.47;5032353;28;20053;-65
2021/07/14 03:16:14;;;;;;;12.82;4.68;;;;;;;18.85;61.88;100752.47;5035493;28;20128;-67
2021/07/14 03:18:46;;;;;;;15.13;5.15;;;;;;;18.84;61.82;100753.63;5041428;28;20477;-65
2021/07/14 03:21:15;;;;;;;9.95;4.70;;;;;;;18.84;61.67;100750.81;5040578;28;20084;-65
2021/07/14 03:23:43;;;;;;;9.57;5.22;;;;;;;18.86;62.03;100751.28;5043641;28;20474;-62
2021/07/14 03:26:10;;;;;;;11.02;5.65;;;;;;;18.79;62.00;100740.47;5039621;28;20111;-62
2021/07/14 03:28:39;;;;;;;8.43;4.22;;;;;;;18.87;61.87;100750.13;5043552;28;20045;-62
2021/07/14 03:31:07;;;;;;;7.80;4.78;;;;;;;18.85;62.03;100738.31;5036834;28;20553;-62
2021/07/14 03:33:35;;;;;;;8.50;4.80;;;;;;;18.90;61.67;100738.13;5048530;28;20080;-63
2021/07/14 03:36:07;;;;;;;11.63;4.93;;;;;;;18.76;62.13;100720.50;5043215;28;20041;-64
2021/07/14 03:38:35;;;;;;;15.73;5.07;;;;;;;18.86;61.67;100737.97;5032854;28;20045;-64
2021/07/14 03:41:02;;;;;;;9.40;5.03;;;;;;;18.68;61.61;100714.47;5051570;28;20124;-64
2021/07/14 03:43:32;;;;;;;12.02;5.38;;;;;;;18.77;62.00;100745.63;5042121;28;20053;-64
2021/07/14 03:46:04;;;;;;;7.90;4.30;;;;;;;18.73;61.79;100752.28;5037722;28;20136;-65
2021/07/14 03:48:33;;;;;;;8.98;4.68;;;;;;;18.68;61.91;100750.41;5056746;28;20129;-64
2021/07/14 03:51:03;;;;;;;9.02;4.90;;;;;;;18.62;61.98;100738.41;5038988;28;20145;-64
2021/07/14 03:53:30;;;;;;;16.42;5.32;;;;;;;18.59;61.93;100738.25;5031845;28;20080;-65
2021/07/14 03:55:57;;;;;;;11.70;5.13;;;;;;;18.58;62.34;100734.59;5033887;28;20172;-66
2021/07/14 03:58:25;;;;;;;8.07;4.50;;;;;;;18.47;62.03;100727.59;5031649;28;20125;-65
2021/07/14 04:00:53;;;;;;;10.27;5.03;;;;;;;18.49;62.44;100742.22;5032038;28;20132;-64
2021/07/14 04:03:24;;;;;;;10.18;5.88;;;;;;;18.45;62.03;100735.56;5049766;28;20130;-63
2021/07/14 04:05:59;;;;;;;13.10;4.68;;;;;;;18.42;62.48;100750.34;5044365;28;20128;-63
2021/07/14 04:08:32;;;;;;;11.25;5.35;;;;;;;18.37;62.34;100740.03;5037558;28;20144;-61
2021/07/14 04:10:59;;;;;;;13.85;5.10;;;;;;;18.35;62.40;100736.69;5035999;28;20085;-62
2021/07/14 04:13:26;;;;;;;15.43;5.18;;;;;;;18.30;62.51;100730.38;5046334;28;20124;-63
2021/07/14 04:15:53;;;;;;;14.50;5.43;;;;;;;18.30;62.62;100741.69;5037780;28;20045;-64
2021/07/14 04:18:20;;;;;;;17.60;5.55;;;;;;;18.29;62.50;100742.81;5051840;28;20044;-62
2021/07/14 04:20:47;;;;;;;11.15;5.00;;;;;;;18.25;62.78;100734.16;5036857;28;20132;-67
2021/07/14 04:23:14;;;;;;;10.60;5.05;;;;;;;18.18;62.43;100742.28;5051820;28;20297;-63
2021/07/14 04:25:41;;;;;;;9.52;4.93;;;;;;;18.18;62.59;100745.94;5037867;28;20124;-63
2021/07/14 04:28:08;;;;;;;12.48;5.80;;;;;;;17.63;62.85;100661.63;5044824;28;20133;-70
2021/07/14 04:30:35;;;;;;;12.50;5.15;;;;;;;18.12;63.10;100724.66;5044595;28;20041;-69
2021/07/14 04:33:02;;;;;;;9.82;5.32;;;;;;;18.23;62.92;100748.66;5049606;28;20041;-69
2021/07/14 04:35:29;;;;;;;13.18;5.25;;;;;;;18.24;63.12;100739.00;5041249;28;20132;-68
2021/07/14 04:37:56;;;;;;;12.18;5.45;;;;;;;18.28;62.89;100744.00;5055562;28;20055;-65
2021/07/14 04:40:23;;;;;;;8.90;5.35;;;;;;;18.14;63.22;100713.84;5042859;28;20503;-67
2021/07/14 04:42:51;;;;;;;11.32;4.97;;;;;;;18.34;63.09;100737.03;5044602;28;20099;-67
2021/07/14 04:45:18;;;;;;;7.22;4.75;;;;;;;18.28;62.85;100724.22;5044007;28;20407;-69
2021/07/14 04:47:45;;;;;;;15.93;5.63;;;;;;;18.38;62.79;100740.88;5044240;28;20040;-65
2021/07/14 04:50:13;;;;;;;10.57;4.82;;;;;;;18.47;62.71;100730.41;5043552;28;20060;-70
2021/07/14 04:52:39;;;;;;;9.63;4.95;;;;;;;18.58;62.48;100730.94;5034694;28;20056;-68
2021/07/14 04:55:07;;;;;;;11.02;5.22;;;;;;;18.68;62.54;100730.63;5045800;28;20052;-61
2021/07/14 04:57:34;;;;;;;8.13;4.82;;;;;;;18.65;62.33;100739.75;5048005;28;20401;-64
2021/07/14 05:00:03;;;;;;;12.45;5.07;;;;;;;18.59;62.26;100715.63;5034501;28;20045;-67
2021/07/14 05:02:30;;;;;;;11.27;4.60;;;;;;;18.76;61.77;100751.63;5036206;28;20457;-69
2021/07/14 05:04:57;;;;;;;13.50;5.15;;;;;;;18.63;62.05;100750.56;5046331;28;20183;-69
2021/07/14 05:07:24;;;;;;;8.63;4.72;;;;;;;18.55;62.12;100742.91;5037462;28;20139;-66
2021/07/14 05:09:51;;;;;;;10.48;5.05;;;;;;;18.57;62.10;100758.38;5033430;28;20129;-70
2021/07/14 05:12:18;;;;;;;10.10;4.97;;;;;;;18.60;62.01;100763.38;5048462;28;20132;-70
2021/07/14 05:14:44;;;;;;;12.15;5.45;;;;;;;18.57;62.04;100769.69;5039406;28;20140;-70
2021/07/14 05:17:11;;;;;;;11.07;5.03;;;;;;;18.59;62.45;100761.69;5042175;28;20076;-74
2021/07/14 05:19:38;;;;;;;10.20;4.97;;;;;;;18.55;62.24;100745.72;5036511;28;20593;-63
2021/07/14 05:22:05;;;;;;;12.38;5.25;;;;;;;18.66;62.41;100756.38;5037285;28;20073;-64
2021/07/14 05:24:32;;;;;;;7.05;4.55;;;;;;;18.67;61.70;100762.91;5043580;28;20053;-64
2021/07/14 05:26:59;;;;;;;15.68;6.47;;;;;;;18.58;61.90;100760.03;5037975;28;20136;-64
2021/07/14 05:29:27;;;;;;;13.95;5.10;;;;;;;18.66;61.78;100772.53;5046819;28;20129;-64
2021/07/14 05:31:53;;;;;;;12.75;4.57;;;;;;;18.65;61.98;100766.03;5034863;28;20128;-61
2021/07/14 05:34:21;;;;;;;11.68;5.70;;;;;;;18.59;61.76;100763.69;5038570;28;20120;-65
2021/07/14 05:36:48;;;;;;;7.82;4.50;;;;;;;18.36;62.17;100752.50;5043693;28;20448;-66
2021/07/14 05:39:15;;;;;;;11.88;4.38;;;;;;;18.43;62.51;100771.81;5070638;28;20048;-65
2021/07/14 05:41:42;;;;;;;8.15;4.32;;;;;;;18.41;62.58;100765.66;5035996;28;20057;-65
2021/07/14 05:44:09;;;;;;;7.95;4.97;;;;;;;18.50;62.75;100775.00;5040044;28;20129;-64
2021/07/14 05:46:36;;;;;;;9.88;5.15;;;;;;;18.55;62.52;100783.31;5036708;28;20141;-64
2021/07/14 05:49:03;;;;;;;8.90;5.35;;;;;;;18.61;62.61;100773.53;5044094;28;20585;-65
2021/07/14 05:51:33;;;;;;;10.25;4.72;;;;;;;18.63;62.58;100774.03;5035745;28;20079;-65
2021/07/14 05:54:00;;;;;;;10.23;4.72;;;;;;;18.89;62.27;100787.41;5042271;28;20073;-65
2021/07/14 05:56:27;;;;;;;14.57;4.63;;;;;;;18.94;61.93;100767.47;5035932;28;20135;-64
2021/07/14 05:58:54;;;;;;;10.27;4.78;;;;;;;19.05;61.66;100771.63;5047458;28;20080;-64
2021/07/14 06:01:21;;;;;;;10.52;5.57;;;;;;;19.29;61.98;100790.09;5043212;28;20472;-65
2021/07/14 06:03:48;;;;;;;12.77;6.00;;;;;;;19.58;60.93;100775.22;5032524;28;20041;-65
2021/07/14 06:06:16;;;;;;;14.23;5.97;;;;;;;19.98;60.40;100786.34;5032334;28;20123;-65
2021/07/14 06:08:43;;;;;;;10.75;6.20;;;;;;;20.00;60.07;100787.69;5033799;28;20132;-65
2021/07/14 06:11:10;;;;;;;11.88;6.00;;;;;;;20.03;60.36;100791.81;5043649;28;20072;-65
2021/07/14 06:13:37;;;;;;;10.05;5.18;;;;;;;20.20;59.98;100786.06;5034077;28;20133;-65
2021/07/14 06:16:05;;;;;;;9.02;5.80;;;;;;;20.37;59.72;100793.69;5034743;28;20064;-66
2021/07/14 06:18:35;;;;;;;10.27;4.60;;;;;;;20.46;59.52;100787.97;5044170;28;20148;-65
2021/07/14 06:21:02;;;;;;;10.55;5.22;;;;;;;20.65;59.10;100787.53;5039277;28;20140;-65
2021/07/14 06:23:29;;;;;;;11.90;4.70;;;;;;;20.90;58.80;100788.56;5031169;28;20137;-66
2021/07/14 06:25:57;;;;;;;6.10;4.22;;;;;;;21.12;58.30;100787.41;5042335;28;20073;-66
2021/07/14 06:28:24;;;;;;;12.18;5.32;;;;;;;21.65;57.60;100788.63;5035567;28;20071;-66
2021/07/14 06:30:56;;;;;;;11.38;4.68;;;;;;;21.91;56.93;100780.63;5040599;28;20046;-66
2021/07/14 06:33:23;;;;;;;9.13;4.60;;;;;;;22.20;56.14;100801.59;5042993;28;20442;-66
2021/07/14 06:35:50;;;;;;;12.70;5.07;;;;;;;22.34;56.04;100789.88;5041808;28;20517;-66
2021/07/14 06:38:19;;;;;;;12.38;4.88;;;;;;;22.57;55.40;100784.53;5041640;28;20438;-65
2021/07/14 06:40:46;;;;;;;7.78;4.32;;;;;;;22.51;54.87;100737.56;5054566;28;20143;-65
2021/07/14 06:43:15;;;;;;;9.77;5.15;;;;;;;23.01;54.67;100781.88;5031942;28;20124;-64
2021/07/14 06:45:45;;;;;;;11.57;4.50;;;;;;;23.30;54.20;100766.50;5046214;28;20045;-64
2021/07/14 06:48:12;;;;;;;9.05;4.30;;;;;;;23.27;54.09;100779.44;5037154;28;20128;-64
2021/07/14 06:50:39;;;;;;;7.95;4.70;;;;;;;23.44;53.76;100788.88;5038232;28;20073;-64
2021/07/14 06:53:06;;;;;;;11.55;4.45;;;;;;;23.80;52.82;100802.19;5036644;28;20048;-64
2021/07/14 06:55:33;;;;;;;9.60;5.22;;;;;;;24.17;52.41;100794.22;5037094;28;20059;-64
2021/07/14 06:58:00;;;;;;;11.02;4.22;;;;;;;24.56;51.16;100788.72;5032281;28;20413;-65
2021/07/14 07:00:27;;;;;;;7.53;4.47;;;;;;;24.94;50.74;100798.59;5039873;28;20041;-65
2021/07/14 07:02:55;;;;;;;8.77;4.38;;;;;;;25.13;50.38;100807.25;5035391;28;20528;-65
2021/07/14 07:05:22;;;;;;;8.98;4.03;;;;;;;25.09;50.01;100791.16;5035960;28;20495;-64
2021/07/14 07:07:49;;;;;;;8.77;4.30;;;;;;;25.27;49.28;100799.00;5040665;28;20128;-65
2021/07/14 07:10:16;;;;;;;5.07;3.10;;;;;;;25.70;48.45;100805.59;5032343;28;20128;-66
2021/07/14 07:12:42;;;;;;;5.30;3.13;;;;;;;26.02;47.48;100814.03;5032369;28;20041;-66
2021/07/14 07:15:10;;;;;;;5.13;3.33;;;;;;;26.20;47.13;100798.00;5033060;28;20084;-66
2021/07/14 07:17:38;;;;;;;8.82;3.80;;;;;;;26.43;46.74;100794.31;5032546;28;20905;-67
2021/07/14 07:20:05;;;;;;;8.82;4.00;;;;;;;26.56;46.34;100789.22;5032419;28;20064;-67
2021/07/14 07:22:32;;;;;;;7.75;3.33;;;;;;;26.66;46.30;100789.41;5032333;28;20091;-67
2021/07/14 07:25:00;;;;;;;10.43;3.80;;;;;;;26.81;46.01;100795.38;5031373;28;20125;-66
2021/07/14 07:27:33;;;;;;;11.05;4.32;;;;;;;26.78;46.15;100807.59;5032222;28;20072;-67
2021/07/14 07:30:01;;;;;;;6.65;3.58;;;;;;;26.61;45.91;100804.06;5032387;28;20059;-67
2021/07/14 07:32:27;;;;;;;7.40;3.60;;;;;;;26.67;46.07;100808.25;5032943;28;20090;-67
2021/07/14 07:34:54;;;;;;;6.00;3.40;;;;;;;26.76;45.56;100799.38;5032302;28;20132;-66
2021/07/14 07:37:21;;;;;;;13.60;3.78;;;;;;;27.12;44.75;100806.53;5032286;28;20132;-66
2021/07/14 07:39:48;;;;;;;5.55;3.63;;;;;;;27.40;44.54;100805.25;5046277;28;20068;-66
2021/07/14 07:42:16;;;;;;;6.05;3.75;;;;;;;27.60;44.40;100806.75;5047667;28;20128;-67
2021/07/14 07:44:43;;;;;;;9.15;3.40;;;;;;;27.82;43.70;100809.91;5032356;28;20096;-66
2021/07/14 07:47:10;;;;;;;8.07;3.50;;;;;;;27.98;43.31;100786.72;5032132;28;20080;-66
2021/07/14 07:49:38;;;;;;;8.18;4.05;;;;;;;28.21;42.99;100806.63;5032585;28;20557;-66
2021/07/14 07:52:24;;;;;;;4.70;3.40;;;;;;;28.28;42.72;100792.34;5034196;28;20041;-65
2021/07/14 07:54:52;;;;;;;7.72;2.97;;;;;;;28.45;42.69;100806.06;5040528;28;20045;-65
2021/07/14 07:57:18;;;;;;;7.43;3.70;;;;;;;28.51;42.13;100809.38;5032205;28;20554;-62
2021/07/14 07:59:45;;;;;;;9.20;3.15;;;;;;;28.67;42.31;100806.25;5037996;28;20124;-64
2021/07/14 08:02:12;;;;;;;6.90;3.05;;;;;;;28.85;41.83;100812.94;5043683;28;20135;-63
2021/07/14 08:04:39;;;;;;;5.75;2.88;;;;;;;28.84;41.56;100805.56;5038563;28;20072;-68
2021/07/14 08:07:06;;;;;;;10.95;3.65;;;;;;;28.31;41.93;100789.50;5051607;28;20128;-68
2021/07/14 08:09:34;;;;;;;4.75;2.75;;;;;;;28.20;42.35;100796.34;5051637;28;20136;-67
2021/07/14 08:12:01;;;;;;;5.60;3.13;;;;;;;28.07;42.54;100805.28;5038765;28;20528;-67
2021/07/14 08:14:28;;;;;;;5.10;3.00;;;;;;;27.99;42.27;100812.13;5031564;28;20132;-67
2021/07/14 08:16:54;;;;;;;4.72;3.03;;;;;;;27.99;42.55;100805.56;5031679;28;20141;-67
2021/07/14 08:19:24;;;;;;;5.60;2.70;;;;;;;28.01;42.01;100806.84;5031693;28;20089;-68
2021/07/14 08:21:50;;;;;;;5.90;3.45;;;;;;;28.05;41.89;100799.09;5032030;28;20129;-67
2021/07/14 08:24:17;;;;;;;7.32;2.85;;;;;;;27.99;42.07;100777.69;5031779;28;20120;-67
2021/07/14 08:26:44;;;;;;;4.13;2.80;;;;;;;28.20;41.91;100788.56;5032030;28;20088;-68
2021/07/14 08:29:31;;;;;;;5.53;2.85;;;;;;;28.29;41.14;100789.06;5031638;28;20481;-66
2021/07/14 08:31:58;;;;;;;8.60;2.75;;;;;;;28.49;41.03;100801.19;5029490;28;20128;-67
2021/07/14 08:34:25;;;;;;;3.75;3.03;;;;;;;28.61;40.80;100797.16;5031717;28;20073;-67
2021/07/14 08:36:51;;;;;;;7.70;2.88;;;;;;;28.57;40.67;100779.91;5031594;28;20133;-67
2021/07/14 08:39:19;;;;;;;5.43;2.85;;;;;;;28.69;40.89;100798.88;5032429;28;20072;-67
2021/07/14 08:41:48;;;;;;;8.88;2.85;;;;;;;28.81;40.56;100778.44;5029745;28;20576;-66
2021/07/14 08:44:15;;;;;;;5.53;2.42;;;;;;;28.80;40.19;100775.97;5031359;28;20080;-66
2021/07/14 08:46:42;;;;;;;3.85;2.10;;;;;;;28.88;39.03;100794.09;5031990;28;20124;-67
2021/07/14 08:49:09;;;;;;;4.78;2.40;;;;;;;28.45;38.99;100788.84;5031550;28;20052;-66
2021/07/14 08:51:38;;;;;;;4.88;2.85;;;;;;;28.69;39.40;100780.81;5031342;28;20115;-67
2021/07/14 08:54:05;;;;;;;6.82;3.17;;;;;;;28.45;39.46;100742.88;5031637;28;20076;-67
2021/07/14 08:56:33;;;;;;;6.03;2.78;;;;;;;28.96;39.65;100776.50;5031908;28;20140;-67
2021/07/14 08:59:00;;;;;;;3.83;2.85;;;;;;;29.10;37.85;100786.47;5030245;28;20487;-67
2021/07/14 09:01:27;;;;;;;1.83;1.63;;;;;;;29.24;37.56;100790.25;5041309;28;20128;-66
2021/07/14 09:03:55;;;;;;;4.30;1.98;;;;;;;29.17;36.77;100783.63;5051311;28;20044;-66
2021/07/14 09:06:22;;;;;;;7.80;2.15;;;;;;;29.33;36.16;100797.66;5051375;28;20075;-66
2021/07/14 09:08:49;;;;;;;4.05;1.50;;;;;;;29.41;35.58;100791.56;5044761;28;20117;-66
2021/07/14 09:11:18;;;;;;;3.13;1.67;;;;;;;29.47;35.50;100798.56;5034707;28;20401;-67
2021/07/14 09:13:46;;;;;;;3.40;1.83;;;;;;;29.00;35.30;100796.66;5035353;28;20041;-66
2021/07/14 09:16:34;;;;;;;2.33;1.63;;;;;;;29.13;35.74;100789.38;5042616;28;20052;-67
2021/07/14 09:19:14;;;;;;;4.85;1.95;;;;;;;29.35;35.08;100781.66;5037119;28;20045;-66
2021/07/14 09:21:42;;;;;;;2.83;1.58;;;;;;;29.66;35.15;100794.56;5034735;28;20045;-66
2021/07/14 09:24:24;;;;;;;3.17;1.80;;;;;;;29.75;34.79;100792.13;5047931;28;20069;-66
2021/07/14 09:26:53;;;;;;;2.78;1.90;;;;;;;29.74;34.43;100802.00;5036250;28;20068;-67
2021/07/14 09:29:20;;;;;;;;;;;;;;;29.44;36.00;100796.50;5035095;28;20053;-67
2021/07/14 09:31:47;;;;;;;3.17;2.10;;;;;;;29.65;35.61;100795.78;5033432;28;19970;-66
2021/07/14 09:34:41;;;;;;;3.72;2.13;;;;;;;29.97;34.92;100795.88;5048438;28;20124;-66
2021/07/14 09:37:07;;;;;;;5.03;2.22;;;;;;;30.02;34.02;100799.59;5032783;28;20552;-66
2021/07/14 09:39:37;;;;;;;4.15;1.80;;;;;;;29.96;33.89;100779.03;5033449;28;20057;-66
2021/07/14 09:42:13;;;;;;;3.88;1.77;;;;;;;29.81;33.66;100786.78;5048034;28;20049;-66
2021/07/14 09:44:45;;;;;;;5.25;2.22;;;;;;;29.79;34.35;100788.44;5043451;28;20049;-67
2021/07/14 09:47:14;;;;;;;5.45;2.83;;;;;;;30.11;33.61;100792.19;5036389;28;20068;-66
2021/07/14 09:49:42;;;;;;;4.22;2.95;;;;;;;30.32;33.55;100779.91;5032624;28;20045;-67
2021/07/14 09:52:11;;;;;;;3.22;2.17;;;;;;;30.56;33.58;100788.97;5045411;28;20536;-67
2021/07/14 09:54:39;;;;;;;2.35;1.80;;;;;;;30.68;32.89;100780.72;5032445;28;20088;-66
2021/07/14 09:57:17;;;;;;;2.92;2.17;;;;;;;30.71;33.25;100779.09;5033508;28;20088;-67
2021/07/14 09:59:45;;;;;;;4.07;2.00;;;;;;;30.70;33.07;100777.44;5035515;28;20053;-66
2021/07/14 10:02:15;;;;;;;3.25;1.60;;;;;;;30.30;32.84;100770.88;5045110;28;20040;-66
2021/07/14 10:04:46;;;;;;;5.63;2.20;;;;;;;30.47;32.74;100771.28;5048733;28;20080;-66
2021/07/14 10:07:23;;;;;;;3.13;1.90;;;;;;;30.48;32.90;100770.03;5044311;28;20124;-66
2021/07/14 10:09:50;;;;;;;2.50;1.83;;;;;;;30.27;32.57;100770.88;5036266;28;20128;-67
2021/07/14 10:12:32;;;;;;;4.18;2.17;;;;;;;30.48;33.33;100770.03;5042059;28;20046;-68
2021/07/14 10:15:20;;;;;;;4.35;2.25;;;;;;;30.97;32.82;100774.13;5032357;28;20041;-67
2021/07/14 10:17:50;;;;;;;5.75;2.03;;;;;;;31.35;31.78;100769.50;5032951;28;20137;-66
2021/07/14 10:20:35;;;;;;;2.90;2.05;;;;;;;31.71;32.22;100761.50;5032207;28;20078;-66
2021/07/14 10:23:04;;;;;;;4.15;2.15;;;;;;;32.20;32.20;100776.91;5032830;28;20045;-67
2021/07/14 10:25:32;;;;;;;5.57;2.35;;;;;;;32.58;31.32;100774.13;5032573;28;20046;-67
2021/07/14 10:28:02;;;;;;;3.45;1.75;;;;;;;32.85;31.79;100773.47;5035504;28;20099;-66
2021/07/14 10:30:29;;;;;;;5.68;2.22;;;;;;;33.04;31.35;100772.91;5032984;28;20171;-67
2021/07/14 10:32:57;;;;;;;2.92;2.10;;;;;;;33.27;31.19;100775.13;5045009;28;20128;-67
2021/07/14 10:35:29;;;;;;;7.35;2.20;;;;;;;33.46;30.43;100762.88;5038278;28;20052;-67
2021/07/14 10:38:25;;;;;;;3.17;1.90;;;;;;;33.60;30.87;100763.97;5041066;28;20126;-67
2021/07/14 10:40:53;;;;;;;4.50;2.25;;;;;;;33.53;30.40;100762.00;5052951;28;20080;-67
2021/07/14 10:43:23;;;;;;;3.25;1.95;;;;;;;33.74;31.01;100763.78;5046059;28;20500;-67
2021/07/14 10:46:00;;;;;;;6.22;2.20;;;;;;;34.02;30.69;100755.94;5033133;28;20068;-67
2021/07/14 10:48:27;;;;;;;4.28;2.10;;;;;;;34.27;30.42;100767.16;5034017;28;20045;-67
2021/07/14 10:50:55;;;;;;;5.07;2.67;;;;;;;34.49;29.89;100744.41;5040362;28;20072;-67
2021/07/14 10:53:24;;;;;;;4.13;2.45;;;;;;;34.51;30.38;100728.25;5047663;28;20127;-67
2021/07/14 10:55:54;;;;;;;3.47;2.47;;;;;;;34.69;30.72;100730.00;5048327;28;20051;-66
2021/07/14 10:58:23;;;;;;;5.95;2.15;;;;;;;34.87;30.07;100742.06;5050410;28;20154;-67
2021/07/14 11:00:50;;;;;;;5.22;2.88;;;;;;;34.95;29.58;100749.41;5048737;28;20041;-66
2021/07/14 11:03:41;;;;;;;4.88;2.47;;;;;;;34.95;29.56;100732.00;5029982;28;20049;-66
2021/07/14 11:06:09;;;;;;;3.25;2.00;;;;;;;35.11;29.61;100735.03;5049123;28;20045;-67
2021/07/14 11:08:50;;;;;;;5.88;2.42;;;;;;;35.25;29.78;100721.44;5031348;28;20500;-66
2021/07/14 11:11:19;;;;;;;4.65;2.60;;;;;;;35.15;29.66;100729.13;5048712;28;20520;-68
2021/07/14 11:14:09;;;;;;;4.82;1.90;;;;;;;34.69;29.56;100735.81;5049378;28;20099;-66
2021/07/14 11:16:39;;;;;;;4.65;3.28;;;;;;;34.07;30.47;100730.19;5045148;28;20131;-68
2021/07/14 11:19:14;;;;;;;4.22;3.03;;;;;;;33.68;30.51;100730.78;5048885;28;20128;-71
2021/07/14 11:21:49;;;;;;;6.53;3.08;;;;;;;33.25;30.41;100726.34;5046060;28;20116;-69
2021/07/14 11:24:49;;;;;;;5.43;3.00;;;;;;;33.00;31.64;100728.72;5052780;28;20081;-67
2021/07/14 11:27:36;;;;;;;3.88;2.85;;;;;;;32.79;31.62;100726.88;5050972;28;20459;-74
2021/07/14 11:30:03;;;;;;;5.53;2.90;;;;;;;32.54;31.48;100733.69;5039718;28;20051;-69
2021/07/14 11:32:33;;;;;;;5.63;3.13;;;;;;;32.22;31.34;100722.41;5049220;28;20482;-67
2021/07/14 11:35:03;;;;;;;6.82;3.10;;;;;;;31.93;32.04;100718.09;5051006;28;20120;-71
2021/07/14 11:37:33;;;;;;;5.07;2.63;;;;;;;31.82;31.66;100732.56;5050094;28;20479;-70
2021/07/14 11:40:18;;;;;;;3.92;1.98;;;;;;;32.08;31.73;100722.53;5047789;28;20048;-71
2021/07/14 11:42:53;;;;;;;3.72;2.63;;;;;;;32.51;32.27;100725.06;5049473;28;20084;-78